Skip Navigation Links
NOAA logo - Click to go to the NOAA homepage
NOAA's National Weather Service
Alaska Aviation Weather Unit
  NWS logo - Click to go to the NWS homepage
Left Navbar Graphic     21 AKDT = 05 GMT

   
NOAA is celebrating 200 years of science, service, and stewardship. Visit the NOAA 200th celebration Web site to learn more.
USA.gov is the U.S. Government's official Web portal to all Federal, state and local government Web resources and services.
Facebook
NWS on Facebook

Important Change Regarding the AAWU Web Presence

 

Over the last several months, the AAWU has been working to navigate its webpages to a nationally supported server. Security, as well as other needs, have necessitated the change.  In the process, we have made an effort to enhance the functionality of our website, as well as some of our products. As of June 27, 2017, aawu.arh.noaa.gov will be discontinued. The new AAWU web address is weather.gov/aawu. It is now live and will run in-parallel with the old site until it is discontinued. Please send any feedback or questions regarding the new webpages to nws.ar.aawu.webauthors@noaa.gov.  Thank you for your patience during this time of transition.
AAWU Home :: Display TAF Add Bookmark
METAR PAAK 242316Z 10011KT 4SM OVC006 08/06 A2960 RMK AO1=

METAR PAAK 242336Z 11012KT 4SM OVC006 08/06 A2959 RMK AO1=

METAR PAAK 242356Z 11012KT 3SM OVC006 08/06 A2957 RMK AO1 10080 20070
     57037=

METAR PAAK 250016Z 13014KT 5SM OVC006 08/06 A2956 RMK AO1=

METAR PAAK 250036Z 12014G18KT 7SM OVC008 08/06 A2953 RMK AO1=

METAR PAAK 250056Z 12014KT 7SM OVC008 08/06 A2950 RMK AO1=

METAR PAAK 250116Z 13014KT 10SM OVC008 08/06 A2953 RMK AO1=

METAR PAAK 250136Z 11014G17KT 2 1/2SM OVC006 08/06 A2954 RMK AO1=

METAR PAAK 250156Z 10012KT 4SM SCT006 OVC013 08/06 A2952 RMK AO1=

METAR PAAK 250216Z 09011KT 4SM BKN013 BKN026 OVC033 09/07 A2950 RMK
     AO1=

METAR PAAK 250236Z 11011KT 2 1/2SM SCT005 BKN010 OVC013 08/06 A2949 RMK
     AO1=

METAR PAAK 250256Z 10013KT 2SM BKN005 OVC010 09/07 A2948 RMK AO1
     57030=

METAR PAAK 250316Z 10013KT 1 3/4SM OVC004 08/06 A2947 RMK AO1=

METAR PAAK 250336Z 09014KT 1 3/4SM OVC003 08/06 A2945 RMK AO1=

METAR PAAK 250356Z 10014KT 1 3/4SM OVC003 08/06 A2944 RMK AO1=

METAR PAAK 250416Z 11014KT 3SM OVC004 08/06 A2944 RMK AO1=

METAR PAAK 250436Z 11015KT 2SM OVC004 08/06 A2943 RMK AO1=

METAR PAAK 250456Z 11013KT 2 1/2SM OVC004 08/06 A2942 RMK AO1=


NOAA's National Weather Service
Alaska Aviation Weather Unit
6930 Sand Lake Road
Anchorage, AK 99502-1845
Disclaimer
Credits
Glossary
Privacy Policy
About Us
Career Opportunities
Contact AAWU Internet Services Site last modified: April, 17th 2012